Time;durP1;ratioP1;P1;durP2;ratioP2;P2;SDS_P1;SDS_P2;PMS_P1;PMS_P2;Temp;Humidity;BMP_temperature;BMP_pressure;BME280_temperature;BME280_humidity;BME280_pressure;Samples;Min_cycle;Max_cycle;Signal;HPM_P1;HPM_P2
2023/09/18 00:00:26;;;;;;;15.88;10.10;;;18.20;99.90;;;;;;4968806;28;20027;-74
2023/09/18 00:02:52;;;;;;;17.27;10.70;;;18.20;99.90;;;;;;4982582;28;20038;-74
2023/09/18 00:05:18;;;;;;;18.42;10.57;;;18.10;99.90;;;;;;4974190;28;20023;-74
2023/09/18 00:07:44;;;;;;;17.30;10.60;;;;;;;;;;4979910;28;20451;-74
2023/09/18 00:10:11;;;;;;;17.35;11.13;;;17.90;99.90;;;;;;4976537;28;20058;-74
2023/09/18 00:12:37;;;;;;;17.15;10.82;;;18.00;99.90;;;;;;4974873;28;20430;-74
2023/09/18 00:15:03;;;;;;;16.30;10.65;;;18.10;99.90;;;;;;4979617;28;20030;-74
2023/09/18 00:17:29;;;;;;;16.95;11.05;;;18.10;99.90;;;;;;4976115;28;20023;-74
2023/09/18 00:19:55;;;;;;;17.77;11.13;;;18.10;99.90;;;;;;4976658;28;20061;-74
2023/09/18 00:22:21;;;;;;;16.70;10.85;;;18.00;99.90;;;;;;4976353;28;20050;-74
2023/09/18 00:24:47;;;;;;;17.42;11.05;;;17.90;99.90;;;;;;4976462;28;20026;-74
2023/09/18 00:27:13;;;;;;;17.02;10.57;;;17.90;99.90;;;;;;4964838;28;20027;-74
2023/09/18 00:29:39;;;;;;;18.83;10.02;;;17.90;99.90;;;;;;4976252;28;20066;-73
2023/09/18 00:32:06;;;;;;;16.20;9.93;;;18.00;99.90;;;;;;4974864;28;20110;-74
2023/09/18 00:34:32;;;;;;;15.52;10.18;;;18.00;99.90;;;;;;4976127;28;20066;-74
2023/09/18 00:36:59;;;;;;;17.50;10.02;;;18.00;99.90;;;;;;4975825;28;20114;-74
2023/09/18 00:39:25;;;;;;;17.73;11.80;;;18.10;99.90;;;;;;4976107;28;20030;-74
2023/09/18 00:41:54;;;;;;;16.80;10.45;;;18.00;99.90;;;;;;4973331;28;20140;-74
2023/09/18 00:44:23;;;;;;;16.25;10.57;;;18.10;99.90;;;;;;4966946;28;20069;-74
2023/09/18 00:46:49;;;;;;;18.67;10.60;;;18.10;99.90;;;;;;4980085;28;20537;-74
2023/09/18 00:49:17;;;;;;;18.20;10.23;;;18.10;99.90;;;;;;4982327;28;20015;-74
2023/09/18 00:51:43;;;;;;;16.90;10.60;;;18.20;99.90;;;;;;4973748;28;20811;-74
2023/09/18 00:54:11;;;;;;;16.65;10.27;;;18.20;99.90;;;;;;4976086;28;20058;-75
2023/09/18 00:56:37;;;;;;;19.63;9.90;;;18.20;99.90;;;;;;4975978;28;20049;-74
2023/09/18 00:59:04;;;;;;;19.52;10.35;;;18.30;99.90;;;;;;4975961;28;20015;-73
2023/09/18 01:01:32;;;;;;;19.52;11.85;;;18.20;99.90;;;;;;4987110;28;20038;-73
2023/09/18 01:03:58;;;;;;;16.85;10.68;;;18.20;99.90;;;;;;4973922;28;20042;-73
2023/09/18 01:06:27;;;;;;;17.63;11.50;;;18.10;99.90;;;;;;4974223;28;20024;-74
2023/09/18 01:08:54;;;;;;;16.70;10.18;;;18.10;99.90;;;;;;4975353;28;20047;-73
2023/09/18 01:11:47;;;;;;;15.88;10.30;;;18.10;99.90;;;;;;4975536;28;20039;-73
2023/09/18 01:14:25;;;;;;;14.70;10.30;;;18.10;99.90;;;;;;4915738;29;20429;-74
2023/09/18 01:16:58;;;;;;;17.00;10.77;;;18.10;99.90;;;;;;4915201;29;20040;-73
2023/09/18 01:19:39;;;;;;;19.48;12.23;;;18.20;99.90;;;;;;4915700;29;20527;-74
2023/09/18 01:22:09;;;;;;;18.23;10.23;;;18.10;99.90;;;;;;4915972;29;20114;-74
2023/09/18 01:24:36;;;;;;;18.27;11.43;;;18.10;99.90;;;;;;4915348;29;20048;-73
2023/09/18 01:27:04;;;;;;;17.33;10.77;;;18.00;99.90;;;;;;4903117;29;20098;-74
2023/09/18 01:29:30;;;;;;;16.75;10.77;;;18.00;99.90;;;;;;4934198;29;20086;-74
2023/09/18 01:31:57;;;;;;;16.83;10.63;;;18.10;99.90;;;;;;4935025;29;20476;-74
2023/09/18 01:34:28;;;;;;;16.73;10.73;;;18.00;99.90;;;;;;4934186;29;20126;-74
2023/09/18 01:36:57;;;;;;;19.13;11.25;;;18.10;99.90;;;;;;4933908;29;20461;-74
2023/09/18 01:39:23;;;;;;;17.33;10.85;;;18.10;99.90;;;;;;4899698;29;20084;-75
2023/09/18 01:41:50;;;;;;;20.13;12.10;;;18.00;99.90;;;;;;4899776;29;20048;-74
2023/09/18 01:44:16;;;;;;;17.90;10.48;;;18.00;99.90;;;;;;4915083;28;20067;-73
2023/09/18 01:46:43;;;;;;;16.55;11.18;;;18.00;99.90;;;;;;4915367;29;20477;-74
2023/09/18 01:49:09;;;;;;;18.13;10.07;;;18.00;99.90;;;;;;4914842;29;20618;-74
2023/09/18 01:51:35;;;;;;;16.90;10.93;;;17.90;99.90;;;;;;4947582;28;20070;-73
2023/09/18 01:54:01;;;;;;;21.48;11.95;;;17.90;99.90;;;;;;4958005;28;20027;-74
2023/09/18 01:56:27;;;;;;;18.23;11.68;;;17.90;99.90;;;;;;4967758;28;20037;-74
2023/09/18 01:58:53;;;;;;;17.85;11.45;;;17.90;99.90;;;;;;4971980;28;20030;-74
2023/09/18 02:01:18;;;;;;;18.10;11.43;;;17.80;99.90;;;;;;4975800;28;20050;-74
2023/09/18 02:03:45;;;;;;;17.75;11.75;;;17.80;99.90;;;;;;4944547;28;20047;-74
2023/09/18 02:06:11;;;;;;;17.92;11.27;;;17.80;99.90;;;;;;4962265;28;20037;-74
2023/09/18 02:08:37;;;;;;;20.52;12.70;;;17.90;99.90;;;;;;4970258;28;20026;-74
2023/09/18 02:11:04;;;;;;;16.83;10.48;;;18.00;99.90;;;;;;4986761;28;20126;-74
2023/09/18 02:13:30;;;;;;;17.55;11.02;;;18.00;99.90;;;;;;4969338;28;20038;-74
2023/09/18 02:15:56;;;;;;;16.50;11.23;;;18.00;99.90;;;;;;4972912;28;20030;-73
2023/09/18 02:18:22;;;;;;;18.77;11.77;;;18.10;99.90;;;;;;4978032;28;20371;-74
2023/09/18 02:20:49;;;;;;;16.77;10.82;;;17.90;99.90;;;;;;4962352;28;20019;-73
2023/09/18 02:23:19;;;;;;;19.95;11.27;;;;;;;;;;4974078;28;20383;-74
2023/09/18 02:25:47;;;;;;;19.52;11.60;;;;;;;;;;4973775;28;20184;-74
2023/09/18 02:28:13;;;;;;;19.10;11.35;;;18.20;99.90;;;;;;4961673;28;20034;-74
2023/09/18 02:30:38;;;;;;;15.13;10.48;;;17.80;99.90;;;;;;4971021;28;20042;-73
2023/09/18 02:33:04;;;;;;;21.17;12.90;;;17.70;99.90;;;;;;4971944;28;20037;-73
2023/09/18 02:35:30;;;;;;;17.85;11.23;;;17.60;99.90;;;;;;4973729;28;20033;-73
2023/09/18 02:37:57;;;;;;;16.20;11.10;;;;;;;;;;4973590;28;20462;-72
2023/09/18 02:40:23;;;;;;;19.85;12.18;;;17.60;99.90;;;;;;4973111;28;20031;-72
2023/09/18 02:42:49;;;;;;;18.98;11.52;;;;;;;;;;4968551;28;20039;-72
2023/09/18 02:45:15;;;;;;;16.95;10.65;;;17.50;99.90;;;;;;4973279;28;20481;-71
2023/09/18 02:47:42;;;;;;;20.63;12.35;;;17.40;99.90;;;;;;4973961;28;20019;-72
2023/09/18 02:50:08;;;;;;;19.90;11.63;;;17.30;99.90;;;;;;4987573;28;20169;-72
2023/09/18 02:52:34;;;;;;;18.10;11.73;;;;;;;;;;4974854;28;20411;-73
2023/09/18 02:55:00;;;;;;;19.73;12.65;;;17.10;99.90;;;;;;4955974;28;20031;-72
2023/09/18 02:57:26;;;;;;;23.60;12.30;;;17.00;99.90;;;;;;4972018;28;20037;-73
2023/09/18 02:59:52;;;;;;;23.63;12.77;;;16.90;99.90;;;;;;4972019;28;20042;-72
2023/09/18 03:02:18;;;;;;;19.38;13.88;;;16.90;99.90;;;;;;4970999;28;20133;-73
2023/09/18 03:04:44;;;;;;;17.30;11.32;;;16.90;99.90;;;;;;4973441;28;20027;-73
2023/09/18 03:07:13;;;;;;;19.83;12.25;;;17.00;99.90;;;;;;4972074;28;20579;-73
2023/09/18 03:09:38;;;;;;;20.83;11.93;;;17.10;99.90;;;;;;4970623;28;20050;-74
2023/09/18 03:12:05;;;;;;;18.85;12.43;;;17.20;99.90;;;;;;4972249;28;20111;-73
2023/09/18 03:14:30;;;;;;;20.48;12.40;;;17.30;99.90;;;;;;4971709;28;20046;-73
2023/09/18 03:16:56;;;;;;;21.50;12.65;;;17.30;99.90;;;;;;4972441;28;20019;-73
2023/09/18 03:19:24;;;;;;;21.20;12.93;;;17.20;99.90;;;;;;4988347;28;20065;-73
2023/09/18 03:21:50;;;;;;;21.75;13.05;;;17.10;99.90;;;;;;4971206;28;20034;-72
2023/09/18 03:24:16;;;;;;;19.40;12.75;;;17.10;99.90;;;;;;4971279;28;20039;-73
2023/09/18 03:26:42;;;;;;;18.35;11.50;;;17.10;99.90;;;;;;4973161;28;20035;-73
2023/09/18 03:29:08;;;;;;;19.10;12.25;;;17.00;99.90;;;;;;4973188;28;20394;-73
2023/09/18 03:31:34;;;;;;;20.10;11.60;;;17.00;99.90;;;;;;4959817;28;20109;-72
2023/09/18 03:34:00;;;;;;;20.45;12.25;;;17.00;99.90;;;;;;4972627;28;20034;-74
2023/09/18 03:36:27;;;;;;;22.75;13.57;;;16.90;99.90;;;;;;4966541;28;20368;-72
2023/09/18 03:38:53;;;;;;;20.38;12.13;;;16.70;99.90;;;;;;4965938;28;20030;-73
2023/09/18 03:41:19;;;;;;;23.58;13.75;;;16.60;99.90;;;;;;4962999;28;20039;-73
2023/09/18 03:43:45;;;;;;;22.92;13.65;;;16.60;99.90;;;;;;4969662;28;20039;-73
2023/09/18 03:46:10;;;;;;;24.23;13.15;;;16.60;99.90;;;;;;4972942;28;20154;-73
2023/09/18 03:48:44;;;;;;;22.73;13.40;;;17.80;99.90;;;;;;4971539;28;20038;-73
2023/09/18 03:51:10;;;;;;;19.15;12.68;;;16.60;99.90;;;;;;4971059;28;20027;-73
2023/09/18 03:53:36;;;;;;;18.80;11.43;;;16.60;99.90;;;;;;4964889;28;20023;-73
2023/09/18 03:56:01;;;;;;;25.40;13.65;;;16.60;99.90;;;;;;4984742;28;20509;-72
2023/09/18 03:58:27;;;;;;;18.40;13.20;;;16.50;99.90;;;;;;4965121;28;20022;-72
2023/09/18 04:00:53;;;;;;;21.80;13.90;;;16.60;99.90;;;;;;4972443;28;20035;-73
2023/09/18 04:03:19;;;;;;;27.00;15.13;;;16.50;99.90;;;;;;4955409;28;20034;-72
2023/09/18 04:05:45;;;;;;;18.92;12.57;;;16.40;99.90;;;;;;4952236;29;20030;-73
2023/09/18 04:08:11;;;;;;;22.00;13.57;;;16.40;99.90;;;;;;4965704;28;20027;-73
2023/09/18 04:10:37;;;;;;;20.60;13.23;;;16.40;99.90;;;;;;4972426;28;20050;-72
2023/09/18 04:13:03;;;;;;;20.88;12.05;;;16.40;99.90;;;;;;4972430;28;20077;-72
2023/09/18 04:15:30;;;;;;;22.35;13.77;;;16.40;99.90;;;;;;4980430;28;20031;-72
2023/09/18 04:17:56;;;;;;;21.92;13.45;;;16.40;99.90;;;;;;4953642;28;20071;-72
2023/09/18 04:20:25;;;;;;;19.50;14.23;;;16.40;99.90;;;;;;4972596;28;20085;-72
2023/09/18 04:23:37;;;;;;;22.40;12.80;;;16.50;99.90;;;;;;4956423;28;20037;-73
2023/09/18 04:26:03;;;;;;;22.05;12.73;;;16.60;99.90;;;;;;4969139;28;20035;-72
2023/09/18 04:28:29;;;;;;;17.15;11.55;;;16.70;99.90;;;;;;4971980;28;20031;-73
2023/09/18 04:30:55;;;;;;;20.55;12.50;;;16.80;99.90;;;;;;4954497;28;20041;-72
2023/09/18 04:33:21;;;;;;;21.55;13.07;;;16.70;99.90;;;;;;4972813;28;20495;-73
2023/09/18 04:35:48;;;;;;;21.13;13.30;;;16.70;99.90;;;;;;4971215;28;20022;-73
2023/09/18 04:38:19;;;;;;;22.30;13.45;;;16.70;99.90;;;;;;4966960;28;20126;-73
2023/09/18 04:40:45;;;;;;;22.00;13.10;;;16.80;99.90;;;;;;4971317;28;20102;-72
2023/09/18 04:43:12;;;;;;;20.10;12.32;;;17.00;99.90;;;;;;4970602;28;20054;-73
2023/09/18 04:45:38;;;;;;;17.52;11.40;;;17.30;99.90;;;;;;4970653;28;20027;-73
2023/09/18 04:48:05;;;;;;;19.08;11.95;;;17.60;99.90;;;;;;4971714;28;20026;-73
2023/09/18 04:50:33;;;;;;;21.80;12.15;;;18.10;99.90;;;;;;4969446;28;20494;-73
2023/09/18 04:53:00;;;;;;;15.43;10.35;;;18.30;99.90;;;;;;4952553;28;20043;-73
2023/09/18 04:55:26;;;;;;;18.20;12.07;;;18.40;99.90;;;;;;4970125;28;20026;-73
2023/09/18 04:57:53;;;;;;;16.80;11.05;;;18.50;99.90;;;;;;4975316;28;20035;-73
2023/09/18 05:00:23;;;;;;;18.58;11.15;;;18.90;99.90;;;;;;4973928;28;20061;-73
2023/09/18 05:02:49;;;;;;;16.58;11.63;;;19.30;99.90;;;;;;4974360;28;20034;-73
2023/09/18 05:05:15;;;;;;;16.75;10.07;;;19.60;99.90;;;;;;4975147;28;20534;-73
2023/09/18 05:07:41;;;;;;;17.45;10.57;;;19.90;99.90;;;;;;4990443;28;20138;-74
2023/09/18 05:10:07;;;;;;;20.50;10.57;;;20.00;99.90;;;;;;4974891;28;20403;-73
2023/09/18 05:12:33;;;;;;;18.92;11.40;;;20.00;99.90;;;;;;4980919;28;20030;-73
2023/09/18 05:14:59;;;;;;;18.63;10.68;;;20.00;99.90;;;;;;4975273;28;20014;-73
2023/09/18 05:17:41;;;;;;;18.25;11.20;;;19.90;99.90;;;;;;4977650;28;20030;-73
2023/09/18 05:20:07;;;;;;;;;;;19.90;99.90;;;;;;4973684;28;20026;-73
2023/09/18 05:22:33;;;;;;;19.73;10.75;;;20.30;99.90;;;;;;4975117;28;19964;-73
2023/09/18 05:24:59;;;;;;;17.35;10.30;;;20.90;99.90;;;;;;4974102;28;20031;-73
2023/09/18 05:27:25;;;;;;;17.08;9.75;;;20.90;99.90;;;;;;4973555;28;20030;-72
2023/09/18 05:29:51;;;;;;;14.75;9.68;;;21.20;99.90;;;;;;4973613;28;20061;-73
2023/09/18 05:32:16;;;;;;;20.13;9.73;;;21.30;99.90;;;;;;4974254;28;20032;-73
2023/09/18 05:34:42;;;;;;;19.35;10.43;;;20.90;99.90;;;;;;4968939;28;20031;-73
2023/09/18 05:37:08;;;;;;;22.08;10.40;;;21.30;99.90;;;;;;4985584;28;20034;-73
2023/09/18 05:39:34;;;;;;;17.75;11.13;;;20.50;99.90;;;;;;4975212;28;20034;-73
2023/09/18 05:41:59;;;;;;;16.17;10.85;;;20.50;99.90;;;;;;4974446;28;20035;-73
2023/09/18 05:44:25;;;;;;;17.60;11.63;;;20.50;99.90;;;;;;4974608;28;20023;-73
2023/09/18 05:46:51;;;;;;;18.38;12.02;;;20.70;99.90;;;;;;4975074;28;20490;-73
2023/09/18 05:49:17;;;;;;;20.30;14.68;;;20.40;99.90;;;;;;4974509;28;20098;-73
2023/09/18 05:51:43;;;;;;;21.13;14.57;;;20.40;99.90;;;;;;4974938;28;20177;-73
2023/09/18 05:54:09;;;;;;;18.17;12.15;;;20.50;99.90;;;;;;4987637;28;20026;-73
2023/09/18 05:56:35;;;;;;;26.42;12.60;;;20.40;99.90;;;;;;4975085;28;20035;-72
2023/09/18 05:59:01;;;;;;;20.77;12.32;;;20.50;99.90;;;;;;4974451;28;20106;-73
2023/09/18 06:01:27;;;;;;;23.92;12.05;;;20.50;99.90;;;;;;4974683;28;20077;-73
2023/09/18 06:03:53;;;;;;;19.38;12.18;;;20.70;99.90;;;;;;4973017;28;20039;-72
2023/09/18 06:06:19;;;;;;;16.55;10.85;;;20.80;99.90;;;;;;4974647;28;20034;-73
2023/09/18 06:08:45;;;;;;;19.27;11.57;;;20.60;99.90;;;;;;4974508;28;20043;-73
2023/09/18 06:11:11;;;;;;;21.83;12.07;;;20.90;99.90;;;;;;4973900;28;20038;-73
2023/09/18 06:13:37;;;;;;;19.05;11.52;;;21.00;99.90;;;;;;4974616;28;20033;-73
2023/09/18 06:16:07;;;;;;;17.48;10.73;;;21.10;99.90;;;;;;4974243;28;20490;-73
2023/09/18 06:18:35;;;;;;;16.27;11.35;;;21.10;99.90;;;;;;4974557;28;20508;-73
2023/09/18 06:21:01;;;;;;;21.08;10.90;;;21.10;99.90;;;;;;4974157;28;20042;-73
2023/09/18 06:23:27;;;;;;;17.85;11.27;;;21.00;99.90;;;;;;4974370;28;20105;-73
2023/09/18 06:25:56;;;;;;;18.42;11.52;;;21.10;99.90;;;;;;4973650;28;20106;-73
2023/09/18 06:28:22;;;;;;;18.67;11.82;;;21.30;99.90;;;;;;4974437;28;20027;-73
2023/09/18 06:30:48;;;;;;;19.00;11.63;;;21.50;99.90;;;;;;4973619;28;20090;-73
2023/09/18 06:33:15;;;;;;;23.20;13.40;;;21.50;99.90;;;;;;4973896;28;20394;-73
2023/09/18 06:35:41;;;;;;;18.67;11.32;;;21.60;99.90;;;;;;4973658;28;20066;-73
2023/09/18 06:38:10;;;;;;;18.27;11.38;;;21.50;99.90;;;;;;4972603;28;20393;-73
2023/09/18 06:40:35;;;;;;;22.02;11.85;;;21.50;99.90;;;;;;4973828;28;20082;-72
2023/09/18 06:43:02;;;;;;;20.15;10.93;;;21.80;99.90;;;;;;4973725;28;20038;-73
2023/09/18 06:45:27;;;;;;;17.83;11.85;;;21.90;99.90;;;;;;4973852;28;20019;-73
2023/09/18 06:47:54;;;;;;;18.40;11.85;;;;;;;;;;4973797;28;20367;-72
2023/09/18 06:50:19;;;;;;;17.70;10.02;;;22.10;99.90;;;;;;4974306;28;20023;-73
2023/09/18 06:52:46;;;;;;;18.88;10.63;;;22.20;99.90;;;;;;4973530;28;20038;-74
2023/09/18 06:55:12;;;;;;;16.73;10.60;;;22.40;99.90;;;;;;4973305;28;20019;-73
2023/09/18 06:57:38;;;;;;;19.73;12.05;;;22.50;99.90;;;;;;4973864;28;20466;-74
2023/09/18 07:00:05;;;;;;;21.63;12.32;;;22.70;99.90;;;;;;4973367;28;20063;-73
2023/09/18 07:02:31;;;;;;;18.80;10.75;;;22.80;99.90;;;;;;4973504;28;20045;-73
2023/09/18 07:04:56;;;;;;;18.92;11.07;;;23.10;99.90;;;;;;4973341;28;20027;-73
2023/09/18 07:07:25;;;;;;;19.73;13.32;;;23.20;99.90;;;;;;4973564;28;20027;-73
2023/09/18 07:09:53;;;;;;;18.02;10.10;;;23.30;99.90;;;;;;4972751;28;20047;-73
2023/09/18 07:12:19;;;;;;;17.75;11.98;;;23.50;99.90;;;;;;4973549;28;20098;-73
2023/09/18 07:14:46;;;;;;;17.58;10.27;;;23.50;99.90;;;;;;4972678;28;20459;-72
2023/09/18 07:17:12;;;;;;;15.32;9.77;;;23.00;99.90;;;;;;4973322;28;20026;-72
2023/09/18 07:19:38;;;;;;;17.80;10.23;;;22.90;99.90;;;;;;4973152;28;20447;-73
2023/09/18 07:22:04;;;;;;;16.67;10.50;;;23.00;99.90;;;;;;4973279;28;20122;-73
2023/09/18 07:24:30;;;;;;;17.42;10.95;;;23.30;99.90;;;;;;4973101;28;20257;-73
2023/09/18 07:26:57;;;;;;;15.93;11.00;;;23.50;99.90;;;;;;4973229;28;20054;-73
2023/09/18 07:29:27;;;;;;;16.77;10.40;;;23.90;99.90;;;;;;4973219;28;20069;-73
2023/09/18 07:31:53;;;;;;;20.08;9.60;;;24.10;99.90;;;;;;4973043;28;20029;-73
2023/09/18 07:34:19;;;;;;;18.55;11.30;;;24.30;99.90;;;;;;4972778;28;20026;-74
2023/09/18 07:36:45;;;;;;;15.00;10.32;;;24.30;99.90;;;;;;4972996;28;20022;-73
2023/09/18 07:39:14;;;;;;;19.95;10.50;;;24.50;99.90;;;;;;4973423;28;20027;-73
2023/09/18 07:41:39;;;;;;;16.92;9.60;;;24.30;99.90;;;;;;4973140;28;20038;-73
2023/09/18 07:44:05;;;;;;;18.40;10.32;;;24.40;99.90;;;;;;4972918;28;20038;-74
2023/09/18 07:46:31;;;;;;;16.52;10.35;;;24.30;99.90;;;;;;4973132;28;20511;-73
2023/09/18 07:48:57;;;;;;;19.90;9.55;;;24.10;99.90;;;;;;4972380;28;20027;-71
2023/09/18 07:51:23;;;;;;;15.30;9.73;;;;;;;;;;4973111;28;20057;-72
2023/09/18 07:53:49;;;;;;;18.08;9.20;;;24.30;99.90;;;;;;4972732;28;20031;-74
2023/09/18 07:56:15;;;;;;;15.73;9.60;;;24.20;99.90;;;;;;4972999;28;20394;-72
2023/09/18 07:58:41;;;;;;;17.08;9.85;;;24.50;99.90;;;;;;4960037;28;20030;-72
2023/09/18 08:01:08;;;;;;;14.02;9.90;;;24.70;99.90;;;;;;4972800;28;20154;-73
2023/09/18 08:03:34;;;;;;;14.52;8.73;;;24.70;99.90;;;;;;4972555;28;20085;-72
2023/09/18 08:06:00;;;;;;;15.60;9.25;;;25.00;99.90;;;;;;4984504;28;20478;-72
2023/09/18 08:08:26;;;;;;;15.43;10.50;;;25.20;99.90;;;;;;4992263;28;20030;-73
2023/09/18 08:10:53;;;;;;;17.30;10.45;;;24.90;99.90;;;;;;4991884;28;20039;-72
2023/09/18 08:13:24;;;;;;;15.50;10.10;;;24.60;99.90;;;;;;4974468;28;20437;-71
2023/09/18 08:15:50;;;;;;;13.80;9.27;;;24.80;99.90;;;;;;4992060;28;20057;-72
2023/09/18 08:18:16;;;;;;;15.18;8.68;;;25.10;99.90;;;;;;4960262;28;20027;-72
2023/09/18 08:20:43;;;;;;;11.70;7.80;;;25.10;99.90;;;;;;4972372;28;20030;-72
2023/09/18 08:23:10;;;;;;;17.65;8.38;;;25.00;99.90;;;;;;4973048;28;20474;-73
2023/09/18 08:25:36;;;;;;;12.15;8.23;;;25.20;99.90;;;;;;4972406;28;20430;-72
2023/09/18 08:28:04;;;;;;;21.65;8.57;;;25.30;99.90;;;;;;4976413;28;20030;-72
2023/09/18 08:30:30;;;;;;;16.58;8.73;;;25.20;99.90;;;;;;4981621;28;20034;-72
2023/09/18 08:32:56;;;;;;;13.15;8.07;;;25.30;99.90;;;;;;4976103;28;20030;-71
2023/09/18 08:35:22;;;;;;;14.25;7.75;;;25.60;99.90;;;;;;4975854;28;20553;-73
2023/09/18 08:37:48;;;;;;;14.82;8.27;;;25.80;99.90;;;;;;4995603;28;20018;-72
2023/09/18 08:40:14;;;;;;;14.50;8.27;;;25.90;99.90;;;;;;4982023;28;20098;-71
2023/09/18 08:42:45;;;;;;;14.23;7.72;;;26.10;99.90;;;;;;4975872;28;20463;-74
2023/09/18 08:45:27;;;;;;;13.75;7.32;;;26.20;99.90;;;;;;4976138;28;20111;-72
2023/09/18 08:47:54;;;;;;;13.82;7.97;;;26.40;99.80;;;;;;4975900;28;20488;-74
2023/09/18 08:50:20;;;;;;;12.55;7.70;;;26.60;99.70;;;;;;4975747;28;20102;-74
2023/09/18 08:52:48;;;;;;;14.32;7.93;;;26.60;99.90;;;;;;4976042;28;20035;-73
2023/09/18 08:55:14;;;;;;;15.52;8.90;;;26.50;97.80;;;;;;4975565;28;20494;-74
2023/09/18 08:57:42;;;;;;;13.70;6.80;;;26.70;99.50;;;;;;4976051;28;20038;-74
2023/09/18 09:00:11;;;;;;;14.70;7.93;;;26.80;97.90;;;;;;4975400;28;20015;-73
2023/09/18 09:02:38;;;;;;;14.77;7.30;;;26.70;97.70;;;;;;4975854;28;20038;-74
2023/09/18 09:05:04;;;;;;;13.32;7.15;;;26.30;97.30;;;;;;4975184;28;20054;-74
2023/09/18 09:07:31;;;;;;;10.63;7.40;;;26.70;98.00;;;;;;4975385;28;20399;-73
2023/09/18 09:09:57;;;;;;;23.13;9.55;;;26.90;99.60;;;;;;4976631;28;20054;-73
2023/09/18 09:12:49;;;;;;;11.40;6.70;;;26.90;99.90;;;;;;4975386;28;20031;-73
2023/09/18 09:15:15;;;;;;;11.80;7.13;;;26.80;96.90;;;;;;4964742;28;20030;-73
2023/09/18 09:17:42;;;;;;;9.43;6.18;;;26.80;96.90;;;;;;4975378;28;20058;-73
2023/09/18 09:20:11;;;;;;;11.95;7.10;;;26.90;96.70;;;;;;4974888;28;20105;-74
2023/09/18 09:22:40;;;;;;;13.00;8.02;;;27.10;96.40;;;;;;4975292;28;20026;-74
2023/09/18 09:25:26;;;;;;;15.18;7.78;;;27.40;99.90;;;;;;4975378;28;20038;-71
2023/09/18 09:27:53;;;;;;;11.80;7.30;;;27.40;99.90;;;;;;4975356;28;20027;-72
2023/09/18 09:30:25;;;;;;;12.82;7.43;;;27.40;99.90;;;;;;4975016;28;20023;-74
2023/09/18 09:32:53;;;;;;;13.48;8.05;;;27.20;96.20;;;;;;4961970;28;20447;-73
2023/09/18 09:35:21;;;;;;;14.02;7.65;;;;;;;;;;4974916;28;20031;-74
2023/09/18 09:37:48;;;;;;;14.10;7.85;;;27.50;95.00;;;;;;4962296;28;20119;-74
2023/09/18 09:40:14;;;;;;;18.23;7.57;;;27.50;95.20;;;;;;4975067;28;20387;-72
2023/09/18 09:42:41;;;;;;;14.25;7.72;;;27.10;94.80;;;;;;4974517;28;20122;-74
2023/09/18 09:45:18;;;;;;;12.27;7.45;;;27.70;94.80;;;;;;4975000;28;20450;-73
2023/09/18 09:47:44;;;;;;;10.65;7.53;;;27.70;94.70;;;;;;4974466;28;20438;-73
2023/09/18 09:50:16;;;;;;;12.05;7.60;;;;;;;;;;4975086;28;20106;-74
2023/09/18 09:52:53;;;;;;;15.13;8.55;;;27.80;99.80;;;;;;4976650;28;20038;-74
2023/09/18 09:55:29;;;;;;;19.33;8.27;;;27.80;94.10;;;;;;4968954;28;20090;-74
2023/09/18 09:58:02;;;;;;;13.52;7.50;;;27.50;94.60;;;;;;4972574;28;20458;-73
2023/09/18 10:00:49;;;;;;;10.95;7.65;;;;;;;;;;4974717;28;20035;-73
2023/09/18 10:03:19;;;;;;;16.52;8.57;;;;;;;;;;4969306;28;20047;-73
2023/09/18 10:05:48;;;;;;;14.35;9.00;;;28.10;93.20;;;;;;4974213;28;20061;-73
2023/09/18 10:08:27;;;;;;;14.00;7.97;;;28.10;93.30;;;;;;4974878;28;20111;-74
2023/09/18 10:11:10;;;;;;;16.10;9.38;;;28.10;92.60;;;;;;4974051;28;20101;-74
2023/09/18 10:14:07;;;;;;;15.48;7.70;;;28.10;93.00;;;;;;4974520;28;20478;-73
2023/09/18 10:16:35;;;;;;;19.20;8.45;;;28.20;91.80;;;;;;4974454;28;20038;-73
2023/09/18 10:19:03;;;;;;;14.90;8.20;;;;;;;;;;4973923;28;20175;-73
2023/09/18 10:21:35;;;;;;;16.33;8.43;;;28.70;99.90;;;;;;4974110;28;20027;-74
2023/09/18 10:24:09;;;;;;;13.20;8.45;;;29.00;97.90;;;;;;4972798;28;20054;-74
2023/09/18 10:26:43;;;;;;;15.10;8.05;;;29.00;92.30;;;;;;4974230;28;20026;-72
2023/09/18 10:29:11;;;;;;;12.77;7.82;;;29.00;92.60;;;;;;4973638;28;20054;-73
2023/09/18 10:31:40;;;;;;;12.90;8.50;;;29.00;91.60;;;;;;4973911;28;20026;-72
2023/09/18 10:34:07;;;;;;;14.48;8.95;;;28.50;90.90;;;;;;4974073;28;20081;-72
2023/09/18 10:36:34;;;;;;;13.23;7.85;;;28.90;91.80;;;;;;4974102;28;20022;-73
2023/09/18 10:39:02;;;;;;;13.30;8.45;;;;;;;;;;4973675;28;20027;-72
2023/09/18 10:41:28;;;;;;;12.75;8.13;;;29.00;91.30;;;;;;4974168;28;20035;-73
2023/09/18 10:43:57;;;;;;;21.58;8.40;;;29.20;95.40;;;;;;4973050;28;20051;-71
2023/09/18 10:46:26;;;;;;;15.07;8.15;;;29.10;99.90;;;;;;4973668;28;20033;-71
2023/09/18 10:48:53;;;;;;;14.80;8.55;;;29.10;99.90;;;;;;4972923;28;20026;-71
2023/09/18 10:51:23;;;;;;;14.63;7.93;;;;;;;;;;4973701;28;20023;-72
2023/09/18 10:53:52;;;;;;;13.95;8.48;;;;;;;;;;4973187;28;20446;-71
2023/09/18 10:56:20;;;;;;;15.00;8.40;;;;;;;;;;4973287;28;20026;-72
2023/09/18 10:58:46;;;;;;;16.77;8.23;;;;;;;;;;4960497;28;20023;-73
2023/09/18 11:01:13;;;;;;;18.35;8.35;;;;;;;;;;4972928;28;20500;-71
2023/09/18 11:03:40;;;;;;;12.15;7.28;;;;;;;;;;4973712;28;20035;-72
2023/09/18 11:06:15;;;;;;;12.52;7.43;;;;;;;;;;4971159;28;20482;-73
2023/09/18 11:08:45;;;;;;;13.48;7.50;;;;;;;;;;4973357;28;20084;-72
2023/09/18 11:11:16;;;;;;;12.65;6.75;;;29.40;93.80;;;;;;4973394;28;20526;-73
2023/09/18 11:13:45;;;;;;;10.80;6.65;;;29.80;96.60;;;;;;4972841;28;20030;-72
2023/09/18 11:16:20;;;;;;;15.10;7.10;;;29.70;95.30;;;;;;4973272;28;20034;-72
2023/09/18 11:18:50;;;;;;;14.65;7.72;;;29.70;91.10;;;;;;4973337;28;20023;-72
2023/09/18 11:21:17;;;;;;;11.43;7.30;;;29.70;88.30;;;;;;4973066;28;20033;-73
2023/09/18 11:23:44;;;;;;;27.50;7.35;;;29.70;86.70;;;;;;4973582;28;20027;-73
2023/09/18 11:26:11;;;;;;;14.32;7.40;;;29.70;85.20;;;;;;4973026;28;20544;-73
2023/09/18 11:28:38;;;;;;;11.45;7.18;;;29.90;87.10;;;;;;4973403;28;20133;-74
2023/09/18 11:31:04;;;;;;;10.68;6.63;;;;;;;;;;4972841;28;20026;-74
2023/09/18 11:33:43;;;;;;;11.82;6.68;;;30.00;86.10;;;;;;4973347;28;20065;-74
2023/09/18 11:36:14;;;;;;;12.25;6.25;;;30.00;84.70;;;;;;4954496;28;20506;-73
2023/09/18 11:39:02;;;;;;;14.68;7.10;;;29.90;83.80;;;;;;4972907;28;20030;-74
2023/09/18 11:41:31;;;;;;;18.38;7.18;;;29.90;84.90;;;;;;4972965;28;20031;-74
2023/09/18 11:44:18;;;;;;;9.63;5.30;;;29.80;83.70;;;;;;4972341;28;20110;-73
2023/09/18 11:46:53;;;;;;;14.15;6.78;;;29.70;82.60;;;;;;4973158;28;20147;-73
2023/09/18 11:49:25;;;;;;;10.07;6.05;;;29.70;84.30;;;;;;4973135;28;20077;-73
2023/09/18 11:51:51;;;;;;;8.52;5.70;;;29.70;83.00;;;;;;4972032;28;20084;-73
2023/09/18 11:54:18;;;;;;;11.02;6.97;;;29.80;82.90;;;;;;4973214;28;20041;-75
2023/09/18 11:56:44;;;;;;;11.95;6.10;;;29.80;82.70;;;;;;4972331;28;20025;-73
2023/09/18 11:59:12;;;;;;;13.30;6.35;;;29.80;81.20;;;;;;4971585;28;20031;-73
2023/09/18 12:01:40;;;;;;;11.77;6.85;;;29.90;81.30;;;;;;4976171;28;20117;-74
2023/09/18 12:04:11;;;;;;;9.80;6.43;;;29.80;82.40;;;;;;4976534;28;20034;-73
2023/09/18 12:06:39;;;;;;;10.32;6.38;;;29.70;80.70;;;;;;4976475;28;20023;-73
2023/09/18 12:09:06;;;;;;;9.85;6.30;;;29.60;80.30;;;;;;4976335;28;20053;-74
2023/09/18 12:11:37;;;;;;;9.82;6.93;;;29.80;81.80;;;;;;4976364;28;20027;-73
2023/09/18 12:14:04;;;;;;;10.23;6.45;;;29.70;81.30;;;;;;4976484;28;20026;-74
2023/09/18 12:16:30;;;;;;;12.63;6.80;;;29.70;81.30;;;;;;4976102;28;20018;-74
2023/09/18 12:18:56;;;;;;;18.00;6.10;;;29.70;80.70;;;;;;4976438;28;20037;-73
2023/09/18 12:21:23;;;;;;;12.20;6.00;;;29.80;80.80;;;;;;4975929;28;20018;-74
2023/09/18 12:23:50;;;;;;;8.02;5.80;;;29.80;79.00;;;;;;4976655;28;20043;-73
2023/09/18 12:26:17;;;;;;;15.63;7.07;;;29.90;80.20;;;;;;4976480;28;20015;-72
2023/09/18 12:28:44;;;;;;;10.18;5.78;;;30.00;82.00;;;;;;4976253;28;20090;-72
2023/09/18 12:31:13;;;;;;;10.52;6.30;;;29.90;83.40;;;;;;4976161;28;20097;-73
2023/09/18 12:33:41;;;;;;;14.43;7.53;;;29.90;80.70;;;;;;4976236;28;20486;-73
2023/09/18 12:36:08;;;;;;;9.30;6.10;;;30.00;81.70;;;;;;4957250;28;20059;-74
2023/09/18 12:38:34;;;;;;;10.23;6.13;;;29.90;79.70;;;;;;4975899;28;20030;-73
2023/09/18 12:41:09;;;;;;;24.30;7.30;;;29.90;81.30;;;;;;4976150;28;20027;-72